Time;durP1;ratioP1;P1;durP2;ratioP2;P2;SDS_P1;SDS_P2;PMS_P1;PMS_P2;Temp;Humidity;BMP_temperature;BMP_pressure;BME280_temperature;BME280_humidity;BME280_pressure;Samples;Min_cycle;Max_cycle;Signal;HPM_P1;HPM_P2
2021/10/18 00:00:18;;;;;;;11.57;7.72;;;6.70;99.90;;;;;;4956397;28;20081;-84
2021/10/18 00:02:44;;;;;;;9.27;7.03;;;6.70;99.90;;;;;;4969118;28;20093;-85
2021/10/18 00:05:11;;;;;;;9.88;6.35;;;6.90;99.90;;;;;;4958863;28;20030;-85
2021/10/18 00:07:37;;;;;;;9.98;6.10;;;6.90;99.90;;;;;;4976867;28;20046;-85
2021/10/18 00:10:06;;;;;;;14.50;7.00;;;6.90;99.90;;;;;;4970694;28;20137;-84
2021/10/18 00:12:31;;;;;;;8.55;5.65;;;6.80;99.90;;;;;;5000825;28;20110;-84
2021/10/18 00:14:57;;;;;;;8.48;6.72;;;6.80;99.90;;;;;;4985755;28;20538;-84
2021/10/18 00:17:23;;;;;;;8.90;7.25;;;6.70;99.90;;;;;;4983731;28;20085;-85
2021/10/18 00:19:49;;;;;;;13.95;7.53;;;6.70;99.90;;;;;;4978908;28;20034;-84
2021/10/18 00:22:15;;;;;;;7.88;6.00;;;6.60;99.90;;;;;;4994840;28;20026;-84
2021/10/18 00:24:40;;;;;;;8.60;6.30;;;6.60;99.90;;;;;;5005636;28;20041;-84
2021/10/18 00:27:06;;;;;;;10.57;6.65;;;6.60;99.90;;;;;;4983677;28;20056;-84
2021/10/18 00:29:31;;;;;;;9.70;5.53;;;6.60;99.90;;;;;;4987915;28;20030;-84
2021/10/18 00:31:57;;;;;;;6.40;5.00;;;6.50;99.90;;;;;;4985666;28;20035;-84
2021/10/18 00:34:22;;;;;;;7.60;5.82;;;6.50;99.90;;;;;;5020431;28;20038;-85
2021/10/18 00:36:48;;;;;;;10.57;6.45;;;6.60;99.90;;;;;;5001983;28;20101;-84
2021/10/18 00:39:13;;;;;;;8.18;5.97;;;6.60;99.90;;;;;;4998939;28;20748;-84
2021/10/18 00:41:39;;;;;;;9.15;5.75;;;6.60;99.90;;;;;;4978621;28;20037;-84
2021/10/18 00:44:05;;;;;;;8.63;6.65;;;6.50;99.90;;;;;;4970178;28;20034;-84
2021/10/18 00:46:31;;;;;;;9.50;6.35;;;6.40;99.90;;;;;;4978276;28;20953;-84
2021/10/18 00:48:57;;;;;;;8.93;6.28;;;6.40;99.90;;;;;;4983849;28;20034;-84
2021/10/18 00:51:23;;;;;;;18.58;9.25;;;6.40;99.90;;;;;;4968329;28;20450;-84
2021/10/18 00:53:49;;;;;;;9.00;5.55;;;6.40;99.90;;;;;;4999551;28;20038;-84
2021/10/18 00:56:15;;;;;;;9.25;6.60;;;6.40;99.90;;;;;;4982773;28;20022;-84
2021/10/18 00:58:41;;;;;;;11.05;5.60;;;6.40;99.90;;;;;;4990418;28;20026;-84
2021/10/18 01:01:07;;;;;;;9.18;6.82;;;6.30;99.90;;;;;;4973493;28;20052;-84
2021/10/18 01:03:33;;;;;;;10.45;6.75;;;6.20;99.90;;;;;;4999922;28;20550;-84
2021/10/18 01:05:59;;;;;;;11.93;7.45;;;6.10;99.90;;;;;;4991025;28;20037;-84
2021/10/18 01:08:24;;;;;;;8.40;6.30;;;6.20;99.90;;;;;;4981415;28;20118;-84
2021/10/18 01:10:50;;;;;;;9.95;6.60;;;6.10;99.90;;;;;;4969785;28;20395;-84
2021/10/18 01:13:15;;;;;;;11.02;6.68;;;6.20;99.90;;;;;;4984065;28;20037;-84
2021/10/18 01:15:41;;;;;;;7.93;6.45;;;6.20;99.90;;;;;;4993249;28;20123;-84
2021/10/18 01:18:06;;;;;;;8.20;5.82;;;6.20;99.90;;;;;;4954844;28;20446;-84
2021/10/18 01:20:36;;;;;;;12.30;7.00;;;6.20;99.90;;;;;;4966090;28;20027;-84
2021/10/18 01:23:01;;;;;;;12.68;6.63;;;6.20;99.90;;;;;;4978971;28;20053;-84
2021/10/18 01:25:27;;;;;;;9.30;6.78;;;6.10;99.90;;;;;;4997567;28;20030;-84
2021/10/18 01:27:53;;;;;;;7.15;5.18;;;6.00;99.90;;;;;;4991884;28;20060;-84
2021/10/18 01:30:19;;;;;;;15.18;7.60;;;6.10;99.90;;;;;;4998844;28;20042;-84
2021/10/18 01:32:45;;;;;;;11.27;6.75;;;6.20;99.90;;;;;;4986451;28;20022;-84
2021/10/18 01:35:10;;;;;;;6.90;5.60;;;6.10;99.90;;;;;;5001777;28;20097;-83
2021/10/18 01:37:36;;;;;;;10.82;6.82;;;6.10;99.90;;;;;;4988047;28;20040;-84
2021/10/18 01:40:08;;;;;;;11.35;6.68;;;5.80;99.90;;;;;;4979066;28;20030;-84
2021/10/18 01:42:33;;;;;;;11.02;6.97;;;5.70;99.90;;;;;;4982853;28;20113;-83
2021/10/18 01:44:59;;;;;;;8.70;6.30;;;5.50;99.90;;;;;;4967730;28;20118;-83
2021/10/18 01:47:27;;;;;;;9.88;6.30;;;5.50;99.90;;;;;;4990502;28;20045;-84
2021/10/18 01:49:53;;;;;;;9.40;6.63;;;5.60;99.90;;;;;;5004090;28;20030;-85
2021/10/18 01:52:19;;;;;;;12.05;6.63;;;5.80;99.90;;;;;;4999880;28;20114;-84
2021/10/18 01:54:45;;;;;;;9.07;5.18;;;5.80;99.90;;;;;;4985768;28;20473;-83
2021/10/18 01:57:10;;;;;;;7.43;6.30;;;5.80;99.90;;;;;;4951964;28;20042;-83
2021/10/18 01:59:36;;;;;;;9.40;6.60;;;5.80;99.90;;;;;;4952642;28;20039;-83
2021/10/18 02:02:02;;;;;;;9.27;6.28;;;5.70;99.90;;;;;;4967045;28;20490;-83
2021/10/18 02:04:27;;;;;;;9.18;6.88;;;5.50;99.90;;;;;;4984524;28;20035;-84
2021/10/18 02:06:53;;;;;;;12.57;7.75;;;5.50;99.90;;;;;;4965217;28;20026;-84
2021/10/18 02:09:18;;;;;;;9.13;7.22;;;5.50;99.90;;;;;;4965914;28;20030;-84
2021/10/18 02:11:44;;;;;;;8.23;6.97;;;5.50;99.90;;;;;;4966391;28;20034;-83
2021/10/18 02:14:09;;;;;;;8.60;7.03;;;5.60;99.90;;;;;;4966873;28;20033;-83
2021/10/18 02:16:35;;;;;;;12.02;7.47;;;5.60;99.90;;;;;;4965728;28;20088;-84
2021/10/18 02:19:01;;;;;;;10.23;6.75;;;5.70;99.90;;;;;;4988798;28;20089;-83
2021/10/18 02:21:26;;;;;;;8.73;5.65;;;5.80;99.90;;;;;;4988610;28;20042;-83
2021/10/18 02:23:52;;;;;;;10.75;7.63;;;5.70;99.90;;;;;;4989273;28;20069;-83
2021/10/18 02:26:17;;;;;;;9.40;5.35;;;5.80;99.90;;;;;;4977068;28;20038;-83
2021/10/18 02:28:43;;;;;;;9.20;5.90;;;6.00;99.90;;;;;;5001724;28;20030;-83
2021/10/18 02:31:08;;;;;;;11.40;7.90;;;6.00;99.90;;;;;;5005484;28;20026;-83
2021/10/18 02:33:34;;;;;;;9.13;6.53;;;5.80;99.90;;;;;;5002303;28;20037;-83
2021/10/18 02:35:59;;;;;;;15.02;7.95;;;5.70;99.90;;;;;;5003813;28;20085;-83
2021/10/18 02:38:25;;;;;;;10.57;7.55;;;5.70;99.90;;;;;;4963259;28;20050;-84
2021/10/18 02:40:50;;;;;;;12.05;7.05;;;5.70;99.90;;;;;;5002452;28;20889;-83
2021/10/18 02:43:16;;;;;;;8.68;7.43;;;5.60;99.90;;;;;;4988947;28;20560;-83
2021/10/18 02:45:41;;;;;;;10.90;6.55;;;5.70;99.90;;;;;;5000682;28;20014;-83
2021/10/18 02:48:07;;;;;;;9.18;5.40;;;5.80;99.90;;;;;;4973078;28;20027;-83
2021/10/18 02:50:33;;;;;;;9.25;6.82;;;6.00;99.90;;;;;;4997934;28;20530;-83
2021/10/18 02:52:58;;;;;;;8.02;6.20;;;6.10;99.90;;;;;;4967257;28;20501;-81
2021/10/18 02:55:24;;;;;;;15.18;7.53;;;6.00;99.90;;;;;;5017424;28;20050;-82
2021/10/18 02:57:49;;;;;;;10.60;6.78;;;5.90;99.90;;;;;;4983250;28;20368;-82
2021/10/18 03:00:15;;;;;;;9.40;7.40;;;5.90;99.90;;;;;;4999652;28;20034;-82
2021/10/18 03:02:41;;;;;;;12.23;7.53;;;5.90;99.90;;;;;;4993655;28;20042;-82
2021/10/18 03:05:07;;;;;;;11.68;7.68;;;5.80;99.90;;;;;;4954647;28;20069;-82
2021/10/18 03:07:32;;;;;;;12.02;7.65;;;5.80;99.90;;;;;;4991843;28;20045;-81
2021/10/18 03:09:58;;;;;;;12.50;8.32;;;5.80;99.90;;;;;;4964805;28;20034;-82
2021/10/18 03:12:24;;;;;;;12.73;8.18;;;5.70;99.90;;;;;;4954674;28;20039;-82
2021/10/18 03:14:49;;;;;;;13.77;7.80;;;5.70;99.90;;;;;;4966016;28;20379;-82
2021/10/18 03:17:15;;;;;;;11.55;6.78;;;5.70;99.90;;;;;;4954212;28;20053;-82
2021/10/18 03:19:40;;;;;;;10.82;6.75;;;5.80;99.90;;;;;;4964467;28;20031;-81
2021/10/18 03:22:06;;;;;;;19.20;10.00;;;5.80;99.90;;;;;;4966942;28;20498;-82
2021/10/18 03:24:31;;;;;;;20.15;9.07;;;5.90;99.90;;;;;;4970340;28;20035;-81
2021/10/18 03:26:57;;;;;;;12.70;7.60;;;5.90;99.90;;;;;;4969234;28;20033;-82
2021/10/18 03:29:23;;;;;;;11.98;7.85;;;5.80;99.90;;;;;;4953028;28;20045;-82
2021/10/18 03:31:48;;;;;;;12.20;6.22;;;5.90;99.90;;;;;;5014211;28;20027;-82
2021/10/18 03:34:14;;;;;;;10.05;6.00;;;6.00;99.90;;;;;;4965535;28;20027;-82
2021/10/18 03:36:39;;;;;;;10.15;6.28;;;6.00;99.90;;;;;;4962865;28;20089;-81
2021/10/18 03:39:05;;;;;;;9.05;6.10;;;6.00;99.90;;;;;;4984949;28;20030;-82
2021/10/18 03:41:30;;;;;;;9.20;5.68;;;6.10;99.90;;;;;;4971153;28;20264;-82
2021/10/18 03:43:56;;;;;;;9.15;5.63;;;6.00;99.90;;;;;;4970696;28;20061;-82
2021/10/18 03:46:21;;;;;;;9.07;6.25;;;6.00;99.90;;;;;;4960974;28;20061;-81
2021/10/18 03:48:47;;;;;;;11.80;7.10;;;6.00;99.90;;;;;;4999753;28;20458;-82
2021/10/18 03:51:13;;;;;;;13.70;6.97;;;6.00;99.90;;;;;;4964579;28;20037;-82
2021/10/18 03:53:38;;;;;;;11.45;6.70;;;5.90;99.90;;;;;;4967228;28;20023;-82
2021/10/18 03:56:04;;;;;;;9.00;6.53;;;5.80;99.90;;;;;;4964629;28;20395;-81
2021/10/18 03:58:29;;;;;;;11.80;6.57;;;5.80;99.90;;;;;;4983921;28;20034;-82
2021/10/18 04:00:55;;;;;;;14.43;7.60;;;5.80;99.90;;;;;;4996155;28;20117;-81
2021/10/18 04:03:20;;;;;;;10.15;6.93;;;5.60;99.90;;;;;;4997632;28;20131;-82
2021/10/18 04:05:46;;;;;;;12.85;6.78;;;5.50;99.90;;;;;;4992116;28;20030;-81
2021/10/18 04:08:12;;;;;;;11.80;6.25;;;5.60;99.90;;;;;;4994317;28;20479;-82
2021/10/18 04:10:37;;;;;;;12.20;7.07;;;5.70;99.90;;;;;;4988670;28;20084;-82
2021/10/18 04:13:03;;;;;;;10.38;7.30;;;5.70;99.90;;;;;;4986233;28;20068;-81
2021/10/18 04:15:31;;;;;;;10.05;6.43;;;5.70;99.90;;;;;;4984547;28;20026;-81
2021/10/18 04:17:57;;;;;;;11.50;7.55;;;5.60;99.90;;;;;;5004726;28;20037;-81
2021/10/18 04:20:22;;;;;;;10.27;7.47;;;5.50;99.90;;;;;;4980331;28;20486;-81
2021/10/18 04:22:48;;;;;;;11.88;8.27;;;5.40;99.90;;;;;;5000847;28;20049;-81
2021/10/18 04:25:14;;;;;;;12.07;7.50;;;5.30;99.90;;;;;;4963485;28;20037;-81
2021/10/18 04:27:40;;;;;;;9.98;8.00;;;5.30;99.90;;;;;;4981224;28;20124;-81
2021/10/18 04:30:05;;;;;;;15.25;8.00;;;5.30;99.90;;;;;;4989698;28;20180;-82
2021/10/18 04:32:31;;;;;;;12.32;8.38;;;5.20;99.90;;;;;;4978467;28;20049;-82
2021/10/18 04:34:58;;;;;;;12.32;7.65;;;5.20;99.90;;;;;;5017832;28;20044;-81
2021/10/18 04:37:23;;;;;;;16.45;8.70;;;5.20;99.90;;;;;;4980106;28;20026;-82
2021/10/18 04:39:49;;;;;;;12.30;8.52;;;5.20;99.90;;;;;;4984395;28;20037;-82
2021/10/18 04:42:14;;;;;;;19.23;8.30;;;5.10;99.90;;;;;;4988137;28;20033;-82
2021/10/18 04:44:40;;;;;;;11.65;8.10;;;5.10;99.90;;;;;;4983846;28;20573;-81
2021/10/18 04:47:05;;;;;;;12.45;8.43;;;5.10;99.90;;;;;;4989940;28;20478;-81
2021/10/18 04:49:31;;;;;;;12.85;8.57;;;5.20;99.90;;;;;;4986241;28;20038;-81
2021/10/18 04:51:56;;;;;;;12.77;8.63;;;5.10;99.90;;;;;;4987365;28;20029;-81
2021/10/18 04:54:22;;;;;;;12.93;8.73;;;5.00;99.90;;;;;;4971252;28;20494;-81
2021/10/18 04:56:47;;;;;;;14.80;8.25;;;5.00;99.90;;;;;;4996641;28;20426;-81
2021/10/18 04:59:13;;;;;;;10.48;8.48;;;5.00;99.90;;;;;;4985600;28;20182;-81
2021/10/18 05:01:39;;;;;;;21.25;8.95;;;5.00;99.90;;;;;;5001728;28;20379;-80
2021/10/18 05:04:07;;;;;;;9.73;7.50;;;5.00;99.90;;;;;;4994914;28;20501;-80
2021/10/18 05:06:32;;;;;;;12.40;7.93;;;5.00;99.90;;;;;;4970253;28;20502;-81
2021/10/18 05:08:58;;;;;;;10.52;7.00;;;5.10;99.90;;;;;;4966780;28;20105;-81
2021/10/18 05:11:23;;;;;;;10.85;7.55;;;5.20;99.90;;;;;;4986037;28;20031;-80
2021/10/18 05:13:49;;;;;;;11.07;7.53;;;5.20;99.90;;;;;;5000804;28;20076;-81
2021/10/18 05:16:14;;;;;;;11.88;8.20;;;5.20;99.90;;;;;;4982571;28;20073;-81
2021/10/18 05:18:40;;;;;;;13.10;9.07;;;5.10;99.90;;;;;;4971837;28;20030;-81
2021/10/18 05:21:06;;;;;;;18.50;9.15;;;5.00;99.90;;;;;;5005368;28;20493;-81
2021/10/18 05:23:32;;;;;;;13.77;9.05;;;4.90;99.90;;;;;;4988784;28;20036;-80
2021/10/18 05:25:58;;;;;;;13.50;8.90;;;4.90;99.90;;;;;;4987655;28;20034;-80
2021/10/18 05:28:24;;;;;;;9.55;7.53;;;4.90;99.90;;;;;;4986739;28;20038;-80
2021/10/18 05:30:49;;;;;;;14.60;8.73;;;4.90;99.90;;;;;;4985825;28;20034;-80
2021/10/18 05:33:15;;;;;;;15.60;8.88;;;4.90;99.90;;;;;;4970471;28;20042;-80
2021/10/18 05:35:40;;;;;;;12.90;8.25;;;4.90;99.90;;;;;;4984842;28;20057;-81
2021/10/18 05:38:06;;;;;;;15.65;9.30;;;4.80;99.90;;;;;;4988791;28;20422;-80
2021/10/18 05:40:31;;;;;;;13.02;9.27;;;4.80;99.90;;;;;;4980678;28;20485;-80
2021/10/18 05:42:57;;;;;;;14.85;9.20;;;4.80;99.90;;;;;;5001140;28;20033;-80
2021/10/18 05:45:23;;;;;;;12.63;8.07;;;4.80;99.90;;;;;;4966715;28;20045;-80
2021/10/18 05:47:53;;;;;;;12.20;6.40;;;4.90;99.90;;;;;;4981677;28;20048;-80
2021/10/18 05:50:18;;;;;;;7.45;5.50;;;5.10;99.90;;;;;;5020606;28;20059;-80
2021/10/18 05:52:44;;;;;;;10.45;6.88;;;5.30;99.90;;;;;;5001447;28;20477;-80
2021/10/18 05:55:09;;;;;;;9.02;6.25;;;5.40;99.90;;;;;;4984578;28;20057;-81
2021/10/18 05:57:48;;;;;;;8.32;5.75;;;5.40;99.90;;;;;;4989086;28;20109;-81
2021/10/18 06:00:13;;;;;;;7.55;5.43;;;5.40;99.90;;;;;;4990179;28;20037;-81
2021/10/18 06:02:39;;;;;;;7.50;4.60;;;5.50;99.90;;;;;;5002879;28;20040;-81
2021/10/18 06:05:05;;;;;;;6.88;4.90;;;5.60;99.90;;;;;;4985536;28;20103;-80
2021/10/18 06:07:30;;;;;;;6.05;4.82;;;5.60;99.90;;;;;;4989476;28;20064;-80
2021/10/18 06:09:58;;;;;;;8.32;5.93;;;5.50;99.90;;;;;;4983679;28;20735;-80
2021/10/18 06:12:23;;;;;;;8.73;5.32;;;5.30;99.90;;;;;;4984492;28;20018;-81
2021/10/18 06:14:49;;;;;;;12.75;7.30;;;5.20;99.90;;;;;;4993577;28;20034;-81
2021/10/18 06:17:14;;;;;;;13.65;7.35;;;5.30;99.90;;;;;;4987106;28;20069;-80
2021/10/18 06:19:40;;;;;;;6.70;5.47;;;5.30;99.90;;;;;;4982761;28;20030;-81
2021/10/18 06:22:05;;;;;;;10.90;5.70;;;5.30;99.90;;;;;;4990542;28;20034;-81
2021/10/18 06:24:31;;;;;;;7.22;5.82;;;5.30;99.90;;;;;;4972793;28;20030;-80
2021/10/18 06:26:56;;;;;;;12.50;6.70;;;5.30;99.90;;;;;;4977081;28;20445;-81
2021/10/18 06:29:22;;;;;;;10.60;6.55;;;5.20;99.90;;;;;;4987458;28;20386;-81
2021/10/18 06:31:47;;;;;;;9.57;7.53;;;5.20;99.90;;;;;;5004402;28;20409;-81
2021/10/18 06:34:15;;;;;;;15.35;7.95;;;5.20;99.90;;;;;;4985213;28;20200;-81
2021/10/18 06:36:41;;;;;;;14.95;9.10;;;5.30;99.90;;;;;;4973057;28;20036;-80
2021/10/18 06:39:09;;;;;;;11.93;8.55;;;5.30;99.90;;;;;;4990648;28;20433;-81
2021/10/18 06:41:34;;;;;;;15.77;9.45;;;5.30;99.90;;;;;;4975190;28;20025;-81
2021/10/18 06:44:00;;;;;;;14.32;8.70;;;5.30;99.90;;;;;;5004965;28;20061;-80
2021/10/18 06:46:26;;;;;;;13.40;8.82;;;5.30;99.90;;;;;;5003649;28;20080;-81
2021/10/18 06:48:51;;;;;;;16.27;9.50;;;5.30;99.90;;;;;;4991138;28;20449;-81
2021/10/18 06:51:17;;;;;;;14.80;8.60;;;5.30;99.90;;;;;;4984970;28;20038;-82
2021/10/18 06:53:42;;;;;;;10.80;8.57;;;5.40;99.90;;;;;;4982810;28;20022;-81
2021/10/18 06:56:08;;;;;;;12.88;9.10;;;5.40;99.90;;;;;;4972235;28;20022;-80
2021/10/18 06:58:33;;;;;;;10.57;7.85;;;5.60;99.90;;;;;;4986627;28;20049;-81
2021/10/18 07:01:00;;;;;;;16.58;8.68;;;5.70;99.90;;;;;;4996846;28;20312;-81
2021/10/18 07:03:26;;;;;;;12.48;7.13;;;5.90;99.90;;;;;;4967780;28;20191;-81
2021/10/18 07:05:51;;;;;;;8.45;6.38;;;5.90;99.90;;;;;;5004216;28;20129;-81
2021/10/18 07:08:17;;;;;;;12.07;7.05;;;6.00;99.90;;;;;;5003624;28;20500;-81
2021/10/18 07:10:43;;;;;;;11.00;6.32;;;6.10;99.90;;;;;;4989408;28;20058;-81
2021/10/18 07:13:09;;;;;;;10.15;6.28;;;6.20;99.90;;;;;;4984798;28;20084;-81
2021/10/18 07:15:38;;;;;;;10.13;5.72;;;6.30;99.90;;;;;;5001793;28;20027;-81
2021/10/18 07:18:04;;;;;;;9.20;6.43;;;6.50;99.90;;;;;;4970766;28;20026;-81
2021/10/18 07:20:30;;;;;;;11.85;6.72;;;6.70;99.90;;;;;;5015611;28;20493;-81
2021/10/18 07:22:59;;;;;;;8.57;6.60;;;6.90;99.90;;;;;;4985303;28;20044;-80
2021/10/18 07:25:25;;;;;;;11.70;7.78;;;6.90;99.90;;;;;;5003722;28;20034;-81
2021/10/18 07:27:51;;;;;;;12.20;8.48;;;7.00;99.90;;;;;;4979862;28;20041;-81
2021/10/18 07:30:16;;;;;;;11.57;7.97;;;7.00;99.90;;;;;;4970975;28;20549;-81
2021/10/18 07:32:45;;;;;;;12.13;8.52;;;7.20;99.90;;;;;;4983628;28;20482;-81
2021/10/18 07:35:11;;;;;;;13.10;7.28;;;7.30;99.90;;;;;;5000574;28;20485;-81
2021/10/18 07:37:37;;;;;;;15.20;7.65;;;7.50;99.90;;;;;;4973470;28;20080;-81
2021/10/18 07:40:03;;;;;;;11.50;7.35;;;7.60;99.90;;;;;;4987871;28;20045;-81
2021/10/18 07:42:29;;;;;;;10.43;7.15;;;7.80;99.90;;;;;;4997895;28;20042;-81
2021/10/18 07:44:54;;;;;;;14.95;8.27;;;7.80;99.90;;;;;;4983304;28;20184;-81
2021/10/18 07:47:21;;;;;;;12.63;8.50;;;7.90;99.90;;;;;;4984622;28;20510;-81
2021/10/18 07:49:47;;;;;;;11.35;8.00;;;7.90;99.90;;;;;;5001400;28;20461;-81
2021/10/18 07:52:12;;;;;;;15.15;9.13;;;8.20;99.90;;;;;;5005270;28;20037;-82
2021/10/18 07:54:39;;;;;;;14.02;8.70;;;8.30;99.90;;;;;;4990225;28;20686;-81
2021/10/18 07:57:05;;;;;;;13.35;8.85;;;8.50;99.90;;;;;;5001615;28;20033;-81
2021/10/18 07:59:30;;;;;;;13.32;7.75;;;8.60;99.90;;;;;;5005113;28;20032;-81
2021/10/18 08:01:56;;;;;;;12.70;7.57;;;8.70;99.90;;;;;;4981203;28;20046;-81
2021/10/18 08:04:22;;;;;;;14.23;7.22;;;8.90;99.90;;;;;;4973555;28;20126;-81
2021/10/18 08:06:47;;;;;;;10.25;6.53;;;9.10;99.90;;;;;;4987690;28;20069;-81
2021/10/18 08:09:13;;;;;;;13.52;7.45;;;9.30;99.90;;;;;;4973632;28;20026;-81
2021/10/18 08:11:39;;;;;;;13.85;7.85;;;9.40;99.90;;;;;;4999534;28;20402;-81
2021/10/18 08:14:05;;;;;;;13.45;7.10;;;9.40;99.90;;;;;;5004719;28;20042;-81
2021/10/18 08:16:30;;;;;;;14.30;7.05;;;9.60;99.90;;;;;;4971499;28;20418;-81
2021/10/18 08:18:56;;;;;;;10.02;6.20;;;9.90;99.90;;;;;;4986692;28;20053;-81
2021/10/18 08:21:22;;;;;;;15.80;6.85;;;10.00;99.90;;;;;;4969606;28;20034;-81
2021/10/18 08:23:48;;;;;;;9.65;6.15;;;10.00;99.90;;;;;;4983103;28;20030;-81
2021/10/18 08:26:13;;;;;;;10.27;6.68;;;10.20;99.90;;;;;;5003929;28;20100;-81
2021/10/18 08:28:39;;;;;;;7.97;6.00;;;10.50;99.90;;;;;;4987364;28;20030;-81
2021/10/18 08:31:04;;;;;;;10.77;5.97;;;10.60;99.90;;;;;;5000348;28;20664;-81
2021/10/18 08:33:30;;;;;;;14.73;7.03;;;10.60;99.90;;;;;;4971156;28;20479;-81
2021/10/18 08:35:56;;;;;;;11.45;7.55;;;10.80;99.90;;;;;;5001892;28;20486;-81
2021/10/18 08:45:45;;;;;;;8.93;5.47;;;11.20;99.60;;;;;;5002717;28;20080;-81
2021/10/18 08:48:11;;;;;;;12.95;7.30;;;11.40;98.90;;;;;;4998749;28;20045;-81
2021/10/18 08:50:36;;;;;;;8.77;6.72;;;11.60;98.90;;;;;;4998718;28;20034;-82
2021/10/18 08:53:02;;;;;;;8.95;6.30;;;11.60;99.10;;;;;;4998904;28;20064;-81
2021/10/18 08:55:28;;;;;;;11.82;6.43;;;11.60;99.10;;;;;;4999692;28;20034;-81
2021/10/18 08:57:54;;;;;;;10.02;5.63;;;11.80;98.90;;;;;;4966535;28;20514;-81
2021/10/18 09:00:39;;;;;;;14.98;6.82;;;11.70;99.10;;;;;;4968048;28;20105;-81
2021/10/18 09:03:15;;;;;;;7.22;5.15;;;12.10;98.40;;;;;;4997327;28;20057;-81
2021/10/18 09:05:40;;;;;;;13.25;5.75;;;12.40;97.70;;;;;;5001139;28;20049;-81
2021/10/18 09:08:06;;;;;;;8.90;5.70;;;12.50;97.60;;;;;;4983060;28;20038;-81
2021/10/18 09:10:33;;;;;;;11.93;5.18;;;12.60;96.90;;;;;;4998134;28;20029;-81
2021/10/18 09:13:11;;;;;;;8.98;5.75;;;12.70;96.60;;;;;;4987039;28;20053;-81
2021/10/18 09:15:36;;;;;;;8.15;5.15;;;12.80;97.00;;;;;;5001690;28;20087;-82
2021/10/18 09:18:02;;;;;;;12.80;5.88;;;12.90;96.80;;;;;;4984940;28;20505;-81
2021/10/18 09:20:31;;;;;;;8.38;5.13;;;13.00;96.40;;;;;;4986168;28;20456;-81
2021/10/18 09:23:15;;;;;;;10.13;5.32;;;13.20;95.30;;;;;;5000988;28;20080;-81
2021/10/18 09:25:41;;;;;;;6.50;4.78;;;13.30;95.90;;;;;;5002479;28;20121;-81
2021/10/18 09:28:14;;;;;;;11.57;5.22;;;13.50;95.50;;;;;;4989632;28;20125;-81
2021/10/18 09:30:41;;;;;;;11.13;4.38;;;13.40;95.80;;;;;;5006869;28;20037;-81
2021/10/18 09:33:23;;;;;;;9.32;5.07;;;13.50;95.40;;;;;;4979932;28;20046;-81
2021/10/18 09:35:50;;;;;;;6.65;5.15;;;13.50;95.80;;;;;;4999456;28;20064;-81
2021/10/18 09:38:17;;;;;;;9.80;5.20;;;13.70;95.70;;;;;;5006875;28;20033;-82
2021/10/18 09:40:45;;;;;;;7.32;4.88;;;13.90;95.00;;;;;;5001937;28;20026;-81
2021/10/18 09:43:14;;;;;;;6.20;4.40;;;13.80;95.40;;;;;;4984554;28;20498;-81
2021/10/18 09:46:00;;;;;;;10.43;4.90;;;13.90;95.50;;;;;;4989196;28;20046;-82
2021/10/18 10:53:05;;;;;;;6.75;4.00;;;16.70;92.40;;;;;;4979307;28;20038;-81
2021/10/18 10:55:32;;;;;;;5.78;3.50;;;17.00;91.10;;;;;;4956670;28;20026;-81
2021/10/18 10:58:01;;;;;;;4.57;3.25;;;17.20;90.50;;;;;;4969482;28;20462;-81
2021/10/18 11:00:30;;;;;;;6.80;3.60;;;17.40;90.00;;;;;;4961094;28;20580;-81
2021/10/18 11:03:31;;;;;;;6.38;3.10;;;17.20;89.60;;;;;;5006992;28;20066;-81
2021/10/18 11:06:03;;;;;;;6.13;3.65;;;17.20;90.30;;;;;;4972344;28;20303;-82
2021/10/18 11:08:33;;;;;;;8.00;3.80;;;17.40;90.00;;;;;;5010387;28;20118;-81
2021/10/18 11:11:21;;;;;;;6.60;3.92;;;17.50;88.60;;;;;;4978715;28;20129;-81
2021/10/18 11:14:06;;;;;;;8.65;3.70;;;17.50;89.30;;;;;;4985054;28;20344;-81
2021/10/18 11:16:32;;;;;;;5.57;3.40;;;17.60;88.20;;;;;;4980189;28;20596;-81
2021/10/18 11:18:59;;;;;;;5.47;3.80;;;17.60;89.10;;;;;;4986986;28;20128;-82
2021/10/18 11:21:29;;;;;;;5.03;3.35;;;17.50;89.90;;;;;;5000128;28;20022;-81
2021/10/18 11:24:02;;;;;;;8.90;3.50;;;17.50;90.20;;;;;;4987440;28;20483;-81
2021/10/18 11:26:31;;;;;;;7.65;3.90;;;17.70;90.40;;;;;;4993981;28;20402;-82
2021/10/18 11:28:58;;;;;;;6.80;4.18;;;17.70;90.60;;;;;;5004924;28;20486;-82
2021/10/18 11:31:31;;;;;;;5.10;3.70;;;17.70;90.60;;;;;;4984981;28;20724;-82
2021/10/18 11:34:11;;;;;;;5.32;3.47;;;17.60;91.30;;;;;;5002702;28;20072;-81
2021/10/18 11:36:40;;;;;;;4.90;3.45;;;17.80;90.10;;;;;;4980758;28;20538;-81
2021/10/18 11:39:07;;;;;;;6.93;4.30;;;17.70;90.90;;;;;;4997273;28;20386;-81
2021/10/18 11:41:52;;;;;;;5.85;3.97;;;17.90;90.60;;;;;;4977903;28;20035;-81
2021/10/18 11:44:18;;;;;;;4.97;3.63;;;18.00;90.10;;;;;;4984174;28;20035;-81
2021/10/18 11:46:43;;;;;;;6.55;3.85;;;18.10;88.50;;;;;;4963991;28;20036;-81
2021/10/18 11:49:09;;;;;;;6.10;4.30;;;18.30;88.50;;;;;;4980527;28;20205;-82
2021/10/18 11:51:34;;;;;;;8.25;5.07;;;18.30;89.10;;;;;;4971849;28;20026;-82
2021/10/18 11:54:01;;;;;;;6.75;4.65;;;18.20;87.90;;;;;;4981262;28;20030;-81
2021/10/18 11:56:27;;;;;;;5.90;3.92;;;18.30;89.90;;;;;;4992765;28;20030;-81
2021/10/18 11:58:52;;;;;;;6.28;4.38;;;18.10;90.10;;;;;;4973617;28;20066;-81
2021/10/18 12:01:27;;;;;;;7.03;5.18;;;18.20;87.10;;;;;;4968265;28;20088;-81
2021/10/18 12:03:58;;;;;;;5.88;4.68;;;18.40;86.90;;;;;;4987393;28;20060;-83
2021/10/18 12:06:23;;;;;;;10.23;4.68;;;18.30;86.70;;;;;;5001488;28;20506;-82
2021/10/18 12:08:54;;;;;;;9.95;4.88;;;18.50;87.90;;;;;;4990571;28;20026;-82
2021/10/18 12:11:20;;;;;;;5.10;3.42;;;18.60;87.10;;;;;;4999683;28;20029;-80
2021/10/18 12:13:47;;;;;;;7.05;5.13;;;18.40;89.90;;;;;;4985926;28;20030;-80
2021/10/18 12:16:19;;;;;;;7.38;4.45;;;18.80;85.10;;;;;;4964036;28;20053;-83
2021/10/18 12:18:58;;;;;;;7.43;3.92;;;18.90;85.70;;;;;;4984731;28;20034;-82
2021/10/18 12:21:35;;;;;;;8.10;3.88;;;19.10;84.20;;;;;;4982465;28;20060;-83
2021/10/18 12:24:05;;;;;;;6.70;4.40;;;18.80;86.00;;;;;;4988220;28;21694;-82
2021/10/18 12:26:48;;;;;;;8.15;4.60;;;19.10;84.80;;;;;;4982559;28;20367;-83
2021/10/18 12:29:17;;;;;;;5.57;3.92;;;18.90;83.50;;;;;;4995995;28;20018;-83
2021/10/18 12:31:48;;;;;;;6.40;4.03;;;19.30;84.60;;;;;;4968264;28;20391;-81
2021/10/18 12:34:22;;;;;;;6.32;3.70;;;19.50;84.60;;;;;;4977283;28;20053;-82
2021/10/18 12:36:48;;;;;;;8.80;4.88;;;19.40;83.90;;;;;;4998313;28;20069;-83
2021/10/18 12:39:14;;;;;;;6.00;3.55;;;19.50;83.00;;;;;;5000557;28;20079;-83
2021/10/18 12:41:43;;;;;;;5.88;3.80;;;19.60;83.90;;;;;;4973413;28;20041;-80
2021/10/18 12:44:12;;;;;;;5.53;3.75;;;19.50;84.30;;;;;;4987549;28;20103;-81
2021/10/18 12:46:38;;;;;;;6.20;4.28;;;19.60;81.50;;;;;;5002959;28;20026;-80
2021/10/18 12:49:10;;;;;;;5.40;3.47;;;19.60;82.70;;;;;;4997742;28;20030;-83
2021/10/18 12:51:35;;;;;;;5.65;3.60;;;19.80;82.50;;;;;;5000627;28;20121;-83
2021/10/18 12:54:39;;;;;;;8.73;3.67;;;19.50;84.40;;;;;;4998869;28;20125;-83
2021/10/18 12:57:12;;;;;;;7.75;4.20;;;19.50;82.90;;;;;;4991469;28;20026;-83
2021/10/18 12:59:59;;;;;;;7.90;3.83;;;19.70;82.00;;;;;;4985429;28;20128;-83
2021/10/18 13:02:28;;;;;;;4.85;3.22;;;19.60;82.30;;;;;;4998398;28;20461;-84
2021/10/18 13:05:01;;;;;;;5.55;4.10;;;19.90;81.90;;;;;;4999490;28;20038;-82
2021/10/18 13:07:27;;;;;;;4.43;3.88;;;19.90;80.30;;;;;;4986095;28;20662;-82
2021/10/18 13:09:52;;;;;;;5.97;3.60;;;19.70;81.60;;;;;;4986786;28;20036;-82
2021/10/18 13:12:18;;;;;;;7.53;3.53;;;19.50;84.80;;;;;;4968816;28;20034;-82
2021/10/18 13:14:44;;;;;;;5.85;4.00;;;19.60;83.10;;;;;;4983453;28;20446;-82
2021/10/18 13:17:09;;;;;;;4.63;3.58;;;19.40;86.30;;;;;;4980844;28;20041;-82
2021/10/18 13:19:35;;;;;;;7.13;3.70;;;19.50;84.20;;;;;;5002592;28;20041;-82
2021/10/18 13:22:00;;;;;;;7.57;4.15;;;19.50;83.90;;;;;;4994106;28;20131;-82
2021/10/18 13:24:26;;;;;;;5.35;4.00;;;19.60;83.50;;;;;;4952940;28;20030;-82
2021/10/18 13:26:51;;;;;;;6.22;4.07;;;19.30;84.00;;;;;;4993379;28;20045;-83
2021/10/18 13:29:23;;;;;;;5.90;3.63;;;19.20;85.20;;;;;;4987995;28;20104;-82
2021/10/18 13:31:50;;;;;;;5.72;3.58;;;19.30;83.90;;;;;;4309558;28;10000631;-82
2021/10/18 13:34:16;;;;;;;5.40;3.80;;;19.50;83.70;;;;;;4967509;28;20037;-82
2021/10/18 13:36:41;;;;;;;5.55;4.18;;;19.40;84.10;;;;;;4979414;28;20026;-83
2021/10/18 13:39:10;;;;;;;8.13;3.78;;;19.20;85.50;;;;;;4968683;28;20040;-82
2021/10/18 13:41:35;;;;;;;6.53;3.65;;;19.30;82.90;;;;;;4981907;28;20027;-82
2021/10/18 13:44:01;;;;;;;8.55;4.68;;;19.30;84.80;;;;;;4999667;28;20064;-82
2021/10/18 13:46:28;;;;;;;6.35;3.90;;;19.20;82.30;;;;;;4994960;28;20033;-82
2021/10/18 13:48:55;;;;;;;5.63;3.67;;;19.30;82.80;;;;;;4966568;28;20384;-82
2021/10/18 13:51:21;;;;;;;6.95;4.40;;;19.20;83.90;;;;;;4949290;28;20054;-82
2021/10/18 13:53:47;;;;;;;6.53;4.68;;;19.00;84.60;;;;;;4948754;28;20554;-82
2021/10/18 13:56:13;;;;;;;10.38;4.35;;;19.00;83.50;;;;;;4985648;28;20105;-83
2021/10/18 13:58:39;;;;;;;7.30;4.68;;;19.00;83.50;;;;;;4959609;28;20498;-82